sensor_id;sensor_type;location;lat;lon;timestamp;P1;durP1;ratioP1;P2;durP2;ratioP2
22963;SDS011;11648;49.306;6.934;2024-03-23T00:56:18;19.00;;;13.90;;
22963;SDS011;11648;49.306;6.934;2024-03-23T00:58:44;19.17;;;13.77;;
22963;SDS011;11648;49.306;6.934;2024-03-23T01:01:10;20.27;;;14.43;;
22963;SDS011;11648;49.306;6.934;2024-03-23T01:03:36;22.50;;;14.60;;
22963;SDS011;11648;49.306;6.934;2024-03-23T01:06:02;19.40;;;14.97;;
22963;SDS011;11648;49.306;6.934;2024-03-23T01:08:31;21.37;;;14.60;;
22963;SDS011;11648;49.306;6.934;2024-03-23T01:10:58;22.33;;;15.77;;
22963;SDS011;11648;49.306;6.934;2024-03-23T01:13:25;20.33;;;14.73;;
22963;SDS011;11648;49.306;6.934;2024-03-23T01:15:52;22.00;;;14.90;;
22963;SDS011;11648;49.306;6.934;2024-03-23T01:18:19;24.90;;;15.80;;
22963;SDS011;11648;49.306;6.934;2024-03-23T01:20:46;22.90;;;15.90;;
22963;SDS011;11648;49.306;6.934;2024-03-23T01:23:12;24.30;;;15.43;;
22963;SDS011;11648;49.306;6.934;2024-03-23T01:25:38;21.63;;;15.30;;
22963;SDS011;11648;49.306;6.934;2024-03-23T01:28:04;22.33;;;15.43;;
22963;SDS011;11648;49.306;6.934;2024-03-23T01:30:32;27.17;;;15.80;;
22963;SDS011;11648;49.306;6.934;2024-03-23T01:32:59;23.07;;;15.30;;
22963;SDS011;11648;49.306;6.934;2024-03-23T01:35:24;21.97;;;15.33;;
22963;SDS011;11648;49.306;6.934;2024-03-23T01:37:50;23.70;;;14.80;;
22963;SDS011;11648;49.306;6.934;2024-03-23T01:40:16;24.33;;;15.67;;
22963;SDS011;11648;49.306;6.934;2024-03-23T01:42:54;20.93;;;14.80;;
22963;SDS011;11648;49.306;6.934;2024-03-23T01:45:21;24.30;;;14.80;;
22963;SDS011;11648;49.306;6.934;2024-03-23T01:47:47;21.77;;;15.67;;
22963;SDS011;11648;49.306;6.934;2024-03-23T01:50:14;22.33;;;15.33;;
22963;SDS011;11648;49.306;6.934;2024-03-23T01:52:40;22.83;;;15.23;;
22963;SDS011;11648;49.306;6.934;2024-03-23T01:55:06;23.60;;;14.87;;
22963;SDS011;11648;49.306;6.934;2024-03-23T01:57:32;22.33;;;14.00;;
22963;SDS011;11648;49.306;6.934;2024-03-23T01:59:58;24.23;;;14.57;;
22963;SDS011;11648;49.306;6.934;2024-03-23T02:02:27;21.10;;;13.77;;
22963;SDS011;11648;49.306;6.934;2024-03-23T02:04:53;21.30;;;13.47;;
22963;SDS011;11648;49.306;6.934;2024-03-23T02:07:19;22.07;;;13.23;;
22963;SDS011;11648;49.306;6.934;2024-03-23T02:09:45;19.80;;;13.40;;
22963;SDS011;11648;49.306;6.934;2024-03-23T02:12:11;21.43;;;13.30;;
22963;SDS011;11648;49.306;6.934;2024-03-23T02:14:37;17.40;;;12.17;;
22963;SDS011;11648;49.306;6.934;2024-03-23T02:17:03;17.37;;;12.10;;
22963;SDS011;11648;49.306;6.934;2024-03-23T02:19:29;18.43;;;12.40;;
22963;SDS011;11648;49.306;6.934;2024-03-23T02:21:55;18.53;;;12.03;;
22963;SDS011;11648;49.306;6.934;2024-03-23T02:24:21;18.57;;;11.67;;
22963;SDS011;11648;49.306;6.934;2024-03-23T02:26:47;16.83;;;10.70;;
22963;SDS011;11648;49.306;6.934;2024-03-23T02:29:14;16.90;;;11.00;;
22963;SDS011;11648;49.306;6.934;2024-03-23T02:31:40;17.17;;;11.20;;
22963;SDS011;11648;49.306;6.934;2024-03-23T02:34:06;18.93;;;11.80;;
22963;SDS011;11648;49.306;6.934;2024-03-23T02:36:32;20.17;;;12.00;;
22963;SDS011;11648;49.306;6.934;2024-03-23T02:38:57;18.13;;;11.70;;
22963;SDS011;11648;49.306;6.934;2024-03-23T02:41:23;19.33;;;11.93;;
22963;SDS011;11648;49.306;6.934;2024-03-23T02:43:49;16.07;;;11.00;;
22963;SDS011;11648;49.306;6.934;2024-03-23T02:46:15;14.70;;;10.40;;
22963;SDS011;11648;49.306;6.934;2024-03-23T02:48:41;14.63;;;10.37;;
22963;SDS011;11648;49.306;6.934;2024-03-23T02:51:07;11.83;;;8.23;;
22963;SDS011;11648;49.306;6.934;2024-03-23T02:53:34;10.93;;;8.27;;
22963;SDS011;11648;49.306;6.934;2024-03-23T02:56:00;11.17;;;7.80;;
22963;SDS011;11648;49.306;6.934;2024-03-23T02:58:26;11.80;;;7.87;;
22963;SDS011;11648;49.306;6.934;2024-03-23T03:00:52;11.20;;;7.30;;
22963;SDS011;11648;49.306;6.934;2024-03-23T03:03:17;9.10;;;6.30;;
22963;SDS011;11648;49.306;6.934;2024-03-23T03:05:43;9.33;;;5.43;;
22963;SDS011;11648;49.306;6.934;2024-03-23T03:08:09;10.20;;;4.93;;
22963;SDS011;11648;49.306;6.934;2024-03-23T03:10:35;6.40;;;4.60;;
22963;SDS011;11648;49.306;6.934;2024-03-23T03:13:02;5.80;;;3.40;;
22963;SDS011;11648;49.306;6.934;2024-03-23T03:15:28;5.60;;;3.43;;
22963;SDS011;11648;49.306;6.934;2024-03-23T03:17:54;4.83;;;2.53;;
22963;SDS011;11648;49.306;6.934;2024-03-23T03:20:20;3.90;;;2.27;;
22963;SDS011;11648;49.306;6.934;2024-03-23T03:22:47;3.40;;;2.30;;
22963;SDS011;11648;49.306;6.934;2024-03-23T03:25:13;3.13;;;1.83;;
22963;SDS011;11648;49.306;6.934;2024-03-23T03:27:39;3.00;;;1.90;;
22963;SDS011;11648;49.306;6.934;2024-03-23T03:30:05;3.80;;;1.80;;
22963;SDS011;11648;49.306;6.934;2024-03-23T03:32:32;2.97;;;1.63;;
22963;SDS011;11648;49.306;6.934;2024-03-23T03:34:58;2.30;;;1.57;;
22963;SDS011;11648;49.306;6.934;2024-03-23T03:37:24;2.40;;;1.30;;
22963;SDS011;11648;49.306;6.934;2024-03-23T03:39:50;2.23;;;1.20;;
22963;SDS011;11648;49.306;6.934;2024-03-23T03:42:16;2.30;;;1.03;;
22963;SDS011;11648;49.306;6.934;2024-03-23T03:44:42;1.90;;;1.00;;
22963;SDS011;11648;49.306;6.934;2024-03-23T03:47:08;3.30;;;1.10;;
22963;SDS011;11648;49.306;6.934;2024-03-23T03:49:34;2.20;;;1.00;;
22963;SDS011;11648;49.306;6.934;2024-03-23T03:51:59;1.80;;;1.10;;
22963;SDS011;11648;49.306;6.934;2024-03-23T03:54:27;2.30;;;1.17;;
22963;SDS011;11648;49.306;6.934;2024-03-23T03:56:53;1.90;;;1.03;;
22963;SDS011;11648;49.306;6.934;2024-03-23T03:59:19;2.33;;;0.90;;
22963;SDS011;11648;49.306;6.934;2024-03-23T04:01:46;2.60;;;0.70;;
22963;SDS011;11648;49.306;6.934;2024-03-23T04:04:12;2.03;;;1.00;;
22963;SDS011;11648;49.306;6.934;2024-03-23T04:06:39;2.77;;;1.20;;
22963;SDS011;11648;49.306;6.934;2024-03-23T04:09:05;1.80;;;0.80;;
22963;SDS011;11648;49.306;6.934;2024-03-23T04:11:32;3.60;;;0.80;;
22963;SDS011;11648;49.306;6.934;2024-03-23T04:13:57;1.40;;;0.73;;
22963;SDS011;11648;49.306;6.934;2024-03-23T04:16:27;2.20;;;0.93;;
22963;SDS011;11648;49.306;6.934;2024-03-23T04:18:59;1.93;;;0.90;;
22963;SDS011;11648;49.306;6.934;2024-03-23T04:21:25;2.60;;;1.30;;
22963;SDS011;11648;49.306;6.934;2024-03-23T04:23:50;2.57;;;1.33;;
22963;SDS011;11648;49.306;6.934;2024-03-23T04:26:17;6.13;;;1.67;;
22963;SDS011;11648;49.306;6.934;2024-03-23T04:28:43;3.20;;;1.50;;
22963;SDS011;11648;49.306;6.934;2024-03-23T04:31:09;3.63;;;1.40;;
22963;SDS011;11648;49.306;6.934;2024-03-23T04:33:35;3.07;;;1.47;;
22963;SDS011;11648;49.306;6.934;2024-03-23T04:36:01;2.70;;;1.30;;
22963;SDS011;11648;49.306;6.934;2024-03-23T04:38:27;2.47;;;1.27;;
22963;SDS011;11648;49.306;6.934;2024-03-23T04:40:56;2.10;;;1.00;;
22963;SDS011;11648;49.306;6.934;2024-03-23T04:43:26;1.07;;;0.60;;
22963;SDS011;11648;49.306;6.934;2024-03-23T04:45:52;0.80;;;0.50;;
22963;SDS011;11648;49.306;6.934;2024-03-23T04:48:20;1.03;;;0.50;;
22963;SDS011;11648;49.306;6.934;2024-03-23T04:50:48;1.23;;;0.60;;
22963;SDS011;11648;49.306;6.934;2024-03-23T04:53:20;1.57;;;0.70;;
22963;SDS011;11648;49.306;6.934;2024-03-23T04:55:46;1.33;;;0.80;;
22963;SDS011;11648;49.306;6.934;2024-03-23T04:58:11;2.07;;;1.00;;
22963;SDS011;11648;49.306;6.934;2024-03-23T05:00:37;3.80;;;1.30;;
22963;SDS011;11648;49.306;6.934;2024-03-23T05:03:03;2.87;;;1.27;;
22963;SDS011;11648;49.306;6.934;2024-03-23T05:05:29;2.27;;;1.20;;
22963;SDS011;11648;49.306;6.934;2024-03-23T05:07:55;2.10;;;1.20;;
22963;SDS011;11648;49.306;6.934;2024-03-23T05:10:21;1.70;;;1.23;;
22963;SDS011;11648;49.306;6.934;2024-03-23T05:12:47;2.20;;;1.10;;
22963;SDS011;11648;49.306;6.934;2024-03-23T05:15:17;1.77;;;1.10;;
22963;SDS011;11648;49.306;6.934;2024-03-23T05:17:43;2.57;;;1.07;;
22963;SDS011;11648;49.306;6.934;2024-03-23T05:20:08;3.17;;;1.70;;
22963;SDS011;11648;49.306;6.934;2024-03-23T05:22:35;3.37;;;1.87;;
22963;SDS011;11648;49.306;6.934;2024-03-23T05:25:01;3.60;;;1.47;;
22963;SDS011;11648;49.306;6.934;2024-03-23T05:27:31;2.53;;;1.40;;
22963;SDS011;11648;49.306;6.934;2024-03-23T05:29:58;2.23;;;1.00;;
22963;SDS011;11648;49.306;6.934;2024-03-23T05:32:24;2.47;;;0.80;;
22963;SDS011;11648;49.306;6.934;2024-03-23T05:34:50;1.00;;;0.40;;
22963;SDS011;11648;49.306;6.934;2024-03-23T05:37:24;0.90;;;0.40;;
22963;SDS011;11648;49.306;6.934;2024-03-23T05:39:50;2.97;;;2.30;;
22963;SDS011;11648;49.306;6.934;2024-03-23T05:42:16;1.80;;;1.07;;
22963;SDS011;11648;49.306;6.934;2024-03-23T05:44:46;1.13;;;0.53;;
22963;SDS011;11648;49.306;6.934;2024-03-23T05:47:12;1.73;;;0.80;;
22963;SDS011;11648;49.306;6.934;2024-03-23T05:49:40;3.90;;;1.20;;
22963;SDS011;11648;49.306;6.934;2024-03-23T05:52:09;1.83;;;0.93;;
22963;SDS011;11648;49.306;6.934;2024-03-23T05:54:35;1.73;;;1.00;;
22963;SDS011;11648;49.306;6.934;2024-03-23T05:57:01;7.23;;;1.40;;
22963;SDS011;11648;49.306;6.934;2024-03-23T05:59:28;2.07;;;0.83;;
22963;SDS011;11648;49.306;6.934;2024-03-23T06:01:54;3.23;;;1.00;;
22963;SDS011;11648;49.306;6.934;2024-03-23T06:04:20;4.03;;;2.33;;
22963;SDS011;11648;49.306;6.934;2024-03-23T06:06:48;3.57;;;1.90;;
22963;SDS011;11648;49.306;6.934;2024-03-23T06:09:14;3.93;;;1.80;;
22963;SDS011;11648;49.306;6.934;2024-03-23T06:11:39;2.57;;;1.07;;
22963;SDS011;11648;49.306;6.934;2024-03-23T06:14:05;5.13;;;1.43;;
22963;SDS011;11648;49.306;6.934;2024-03-23T06:16:31;4.57;;;1.53;;
22963;SDS011;11648;49.306;6.934;2024-03-23T06:18:57;6.50;;;1.50;;
22963;SDS011;11648;49.306;6.934;2024-03-23T06:21:24;4.50;;;1.70;;
22963;SDS011;11648;49.306;6.934;2024-03-23T06:23:53;5.50;;;2.50;;
22963;SDS011;11648;49.306;6.934;2024-03-23T06:26:20;7.13;;;2.13;;
22963;SDS011;11648;49.306;6.934;2024-03-23T06:28:46;7.27;;;2.20;;
22963;SDS011;11648;49.306;6.934;2024-03-23T06:31:13;9.07;;;3.17;;
22963;SDS011;11648;49.306;6.934;2024-03-23T06:33:39;7.70;;;2.67;;
22963;SDS011;11648;49.306;6.934;2024-03-23T06:36:07;6.43;;;2.60;;
22963;SDS011;11648;49.306;6.934;2024-03-23T06:38:35;9.57;;;3.20;;
22963;SDS011;11648;49.306;6.934;2024-03-23T06:41:04;6.27;;;2.70;;
22963;SDS011;11648;49.306;6.934;2024-03-23T06:43:31;8.47;;;2.93;;
22963;SDS011;11648;49.306;6.934;2024-03-23T06:45:57;9.10;;;3.07;;
22963;SDS011;11648;49.306;6.934;2024-03-23T06:48:23;8.53;;;3.17;;
22963;SDS011;11648;49.306;6.934;2024-03-23T06:50:49;7.57;;;3.10;;
22963;SDS011;11648;49.306;6.934;2024-03-23T06:53:15;8.77;;;3.00;;
22963;SDS011;11648;49.306;6.934;2024-03-23T06:55:41;8.50;;;3.70;;
22963;SDS011;11648;49.306;6.934;2024-03-23T06:58:07;8.40;;;3.03;;
22963;SDS011;11648;49.306;6.934;2024-03-23T07:00:33;8.93;;;3.00;;
22963;SDS011;11648;49.306;6.934;2024-03-23T07:02:59;8.07;;;3.20;;
22963;SDS011;11648;49.306;6.934;2024-03-23T07:05:26;9.73;;;3.20;;
22963;SDS011;11648;49.306;6.934;2024-03-23T07:07:52;9.37;;;3.70;;
22963;SDS011;11648;49.306;6.934;2024-03-23T07:10:18;6.80;;;2.90;;
22963;SDS011;11648;49.306;6.934;2024-03-23T07:12:43;12.03;;;3.00;;
22963;SDS011;11648;49.306;6.934;2024-03-23T07:15:09;7.47;;;2.83;;
22963;SDS011;11648;49.306;6.934;2024-03-23T07:17:35;9.87;;;3.20;;
22963;SDS011;11648;49.306;6.934;2024-03-23T07:20:02;9.73;;;4.10;;
22963;SDS011;11648;49.306;6.934;2024-03-23T07:22:30;7.13;;;3.63;;
22963;SDS011;11648;49.306;6.934;2024-03-23T07:24:56;6.57;;;3.40;;
22963;SDS011;11648;49.306;6.934;2024-03-23T07:27:22;6.20;;;3.23;;
22963;SDS011;11648;49.306;6.934;2024-03-23T07:29:49;9.00;;;3.90;;
22963;SDS011;11648;49.306;6.934;2024-03-23T07:32:15;6.97;;;3.43;;
22963;SDS011;11648;49.306;6.934;2024-03-23T07:34:41;9.40;;;4.60;;
22963;SDS011;11648;49.306;6.934;2024-03-23T07:37:10;10.93;;;4.37;;
22963;SDS011;11648;49.306;6.934;2024-03-23T07:39:36;9.80;;;4.07;;
22963;SDS011;11648;49.306;6.934;2024-03-23T07:42:02;9.13;;;4.00;;
22963;SDS011;11648;49.306;6.934;2024-03-23T07:44:28;10.17;;;3.80;;
22963;SDS011;11648;49.306;6.934;2024-03-23T07:46:54;12.57;;;4.50;;
22963;SDS011;11648;49.306;6.934;2024-03-23T07:49:20;11.30;;;4.37;;
22963;SDS011;11648;49.306;6.934;2024-03-23T07:51:45;8.10;;;3.87;;
22963;SDS011;11648;49.306;6.934;2024-03-23T07:54:11;9.47;;;4.33;;
22963;SDS011;11648;49.306;6.934;2024-03-23T07:56:37;10.87;;;4.17;;
22963;SDS011;11648;49.306;6.934;2024-03-23T07:59:03;7.20;;;3.10;;
22963;SDS011;11648;49.306;6.934;2024-03-23T08:01:29;7.80;;;2.87;;
22963;SDS011;11648;49.306;6.934;2024-03-23T08:03:55;8.80;;;2.63;;
22963;SDS011;11648;49.306;6.934;2024-03-23T08:06:21;6.20;;;2.13;;
22963;SDS011;11648;49.306;6.934;2024-03-23T08:08:48;8.00;;;2.50;;
22963;SDS011;11648;49.306;6.934;2024-03-23T08:11:16;7.13;;;1.80;;
22963;SDS011;11648;49.306;6.934;2024-03-23T08:13:44;8.03;;;2.23;;
22963;SDS011;11648;49.306;6.934;2024-03-23T08:16:10;5.80;;;1.67;;
22963;SDS011;11648;49.306;6.934;2024-03-23T08:18:37;5.33;;;1.93;;
22963;SDS011;11648;49.306;6.934;2024-03-23T08:21:04;4.27;;;1.60;;
22963;SDS011;11648;49.306;6.934;2024-03-23T08:23:31;4.50;;;2.10;;
22963;SDS011;11648;49.306;6.934;2024-03-23T08:26:00;7.03;;;2.50;;
22963;SDS011;11648;49.306;6.934;2024-03-23T08:28:27;5.03;;;1.70;;
22963;SDS011;11648;49.306;6.934;2024-03-23T08:30:53;6.83;;;2.37;;
22963;SDS011;11648;49.306;6.934;2024-03-23T08:33:20;4.13;;;1.90;;
22963;SDS011;11648;49.306;6.934;2024-03-23T08:35:56;5.33;;;1.73;;
22963;SDS011;11648;49.306;6.934;2024-03-23T08:38:23;5.33;;;2.00;;
22963;SDS011;11648;49.306;6.934;2024-03-23T08:40:57;6.43;;;2.10;;
22963;SDS011;11648;49.306;6.934;2024-03-23T08:43:23;5.83;;;1.67;;
22963;SDS011;11648;49.306;6.934;2024-03-23T08:45:49;4.77;;;1.70;;
22963;SDS011;11648;49.306;6.934;2024-03-23T08:48:15;3.90;;;1.30;;
22963;SDS011;11648;49.306;6.934;2024-03-23T08:50:41;3.10;;;1.27;;
22963;SDS011;11648;49.306;6.934;2024-03-23T08:53:07;4.73;;;1.50;;
22963;SDS011;11648;49.306;6.934;2024-03-23T08:55:33;3.57;;;1.30;;
22963;SDS011;11648;49.306;6.934;2024-03-23T08:57:59;5.57;;;1.80;;
22963;SDS011;11648;49.306;6.934;2024-03-23T09:00:26;4.78;;;1.77;;
22963;SDS011;11648;49.306;6.934;2024-03-23T09:02:52;3.67;;;1.70;;
22963;SDS011;11648;49.306;6.934;2024-03-23T09:05:19;2.80;;;1.60;;
22963;SDS011;11648;49.306;6.934;2024-03-23T09:07:45;3.97;;;1.75;;
22963;SDS011;11648;49.306;6.934;2024-03-23T09:10:10;5.97;;;2.20;;
22963;SDS011;11648;49.306;6.934;2024-03-23T09:12:36;6.25;;;2.10;;
22963;SDS011;11648;49.306;6.934;2024-03-23T09:15:02;4.20;;;2.00;;
22963;SDS011;11648;49.306;6.934;2024-03-23T09:17:29;6.00;;;2.22;;
22963;SDS011;11648;49.306;6.934;2024-03-23T09:19:55;6.00;;;2.22;;
22963;SDS011;11648;49.306;6.934;2024-03-23T09:22:21;7.70;;;2.25;;
22963;SDS011;11648;49.306;6.934;2024-03-23T09:24:46;7.28;;;2.28;;
22963;SDS011;11648;49.306;6.934;2024-03-23T09:27:12;6.35;;;2.15;;
22963;SDS011;11648;49.306;6.934;2024-03-23T09:29:38;4.95;;;1.80;;
22963;SDS011;11648;49.306;6.934;2024-03-23T09:32:05;5.28;;;1.88;;
22963;SDS011;11648;49.306;6.934;2024-03-23T09:34:31;6.85;;;2.08;;
22963;SDS011;11648;49.306;6.934;2024-03-23T09:36:56;5.88;;;1.88;;
22963;SDS011;11648;49.306;6.934;2024-03-23T09:39:22;8.43;;;2.08;;
22963;SDS011;11648;49.306;6.934;2024-03-23T09:41:48;5.57;;;1.85;;
22963;SDS011;11648;49.306;6.934;2024-03-23T09:44:14;6.10;;;2.10;;
22963;SDS011;11648;49.306;6.934;2024-03-23T09:46:40;5.27;;;1.80;;
22963;SDS011;11648;49.306;6.934;2024-03-23T09:49:09;6.70;;;1.90;;
22963;SDS011;11648;49.306;6.934;2024-03-23T09:51:36;7.72;;;1.90;;
22963;SDS011;11648;49.306;6.934;2024-03-23T09:54:02;6.70;;;1.50;;
22963;SDS011;11648;49.306;6.934;2024-03-23T09:56:28;4.93;;;1.60;;
22963;SDS011;11648;49.306;6.934;2024-03-23T09:59:03;6.57;;;1.52;;
22963;SDS011;11648;49.306;6.934;2024-03-23T10:01:30;6.25;;;1.92;;
22963;SDS011;11648;49.306;6.934;2024-03-23T10:03:56;5.47;;;1.60;;
22963;SDS011;11648;49.306;6.934;2024-03-23T10:06:22;6.25;;;1.80;;
22963;SDS011;11648;49.306;6.934;2024-03-23T10:08:50;7.97;;;2.17;;
22963;SDS011;11648;49.306;6.934;2024-03-23T10:11:18;7.40;;;2.00;;
22963;SDS011;11648;49.306;6.934;2024-03-23T10:13:44;7.80;;;2.27;;
22963;SDS011;11648;49.306;6.934;2024-03-23T10:16:12;5.93;;;1.90;;
22963;SDS011;11648;49.306;6.934;2024-03-23T10:18:47;3.77;;;1.00;;
22963;SDS011;11648;49.306;6.934;2024-03-23T10:21:14;4.70;;;1.37;;
22963;SDS011;11648;49.306;6.934;2024-03-23T10:23:41;5.40;;;1.37;;
22963;SDS011;11648;49.306;6.934;2024-03-23T10:26:24;3.10;;;0.93;;
22963;SDS011;11648;49.306;6.934;2024-03-23T10:28:52;2.90;;;0.70;;
22963;SDS011;11648;49.306;6.934;2024-03-23T10:31:28;2.83;;;0.73;;
22963;SDS011;11648;49.306;6.934;2024-03-23T10:33:54;5.37;;;1.07;;
22963;SDS011;11648;49.306;6.934;2024-03-23T10:36:24;3.20;;;1.17;;
22963;SDS011;11648;49.306;6.934;2024-03-23T10:38:51;3.30;;;1.10;;
22963;SDS011;11648;49.306;6.934;2024-03-23T10:41:18;6.27;;;1.40;;
22963;SDS011;11648;49.306;6.934;2024-03-23T10:43:45;5.63;;;1.17;;
22963;SDS011;11648;49.306;6.934;2024-03-23T10:46:12;4.20;;;1.40;;
22963;SDS011;11648;49.306;6.934;2024-03-23T10:48:38;6.00;;;1.80;;
22963;SDS011;11648;49.306;6.934;2024-03-23T10:51:07;5.35;;;1.98;;
22963;SDS011;11648;49.306;6.934;2024-03-23T10:53:34;6.60;;;2.17;;
22963;SDS011;11648;49.306;6.934;2024-03-23T10:56:02;6.50;;;2.13;;
22963;SDS011;11648;49.306;6.934;2024-03-23T10:58:31;6.03;;;2.20;;
22963;SDS011;11648;49.306;6.934;2024-03-23T11:01:02;6.78;;;2.08;;
22963;SDS011;11648;49.306;6.934;2024-03-23T11:05:58;6.15;;;2.25;;
22963;SDS011;11648;49.306;6.934;2024-03-23T11:08:38;6.45;;;2.13;;
22963;SDS011;11648;49.306;6.934;2024-03-23T11:11:38;8.15;;;2.22;;
22963;SDS011;11648;49.306;6.934;2024-03-23T11:13:59;3.72;;;1.52;;
22963;SDS011;11648;49.306;6.934;2024-03-23T11:16:25;4.97;;;1.40;;
22963;SDS011;11648;49.306;6.934;2024-03-23T11:19:33;4.40;;;1.30;;
22963;SDS011;11648;49.306;6.934;2024-03-23T11:22:04;3.10;;;0.80;;
22963;SDS011;11648;49.306;6.934;2024-03-23T11:24:31;4.57;;;1.10;;
22963;SDS011;11648;49.306;6.934;2024-03-23T11:26:57;2.93;;;0.80;;
22963;SDS011;11648;49.306;6.934;2024-03-23T11:29:29;1.83;;;0.50;;
22963;SDS011;11648;49.306;6.934;2024-03-23T11:31:55;1.97;;;0.60;;
22963;SDS011;11648;49.306;6.934;2024-03-23T11:34:22;2.53;;;0.50;;
22963;SDS011;11648;49.306;6.934;2024-03-23T11:36:48;1.80;;;0.40;;
22963;SDS011;11648;49.306;6.934;2024-03-23T11:41:46;2.57;;;0.40;;
22963;SDS011;11648;49.306;6.934;2024-03-23T11:46:46;1.10;;;0.30;;
22963;SDS011;11648;49.306;6.934;2024-03-23T11:49:25;1.20;;;0.40;;
22963;SDS011;11648;49.306;6.934;2024-03-23T11:51:55;3.20;;;0.60;;
22963;SDS011;11648;49.306;6.934;2024-03-23T11:54:25;1.60;;;0.50;;
22963;SDS011;11648;49.306;6.934;2024-03-23T11:59:34;2.43;;;0.47;;
22963;SDS011;11648;49.306;6.934;2024-03-23T12:02:05;1.53;;;0.50;;
22963;SDS011;11648;49.306;6.934;2024-03-23T12:04:36;3.37;;;1.10;;
22963;SDS011;11648;49.306;6.934;2024-03-23T12:07:15;1.77;;;0.60;;
22963;SDS011;11648;49.306;6.934;2024-03-23T12:09:44;2.87;;;0.87;;
22963;SDS011;11648;49.306;6.934;2024-03-23T12:14:44;3.80;;;0.80;;
22963;SDS011;11648;49.306;6.934;2024-03-23T12:17:15;3.10;;;0.67;;
22963;SDS011;11648;49.306;6.934;2024-03-23T12:19:41;2.83;;;0.90;;
22963;SDS011;11648;49.306;6.934;2024-03-23T12:22:08;2.60;;;0.70;;
22963;SDS011;11648;49.306;6.934;2024-03-23T12:24:34;3.30;;;0.80;;
22963;SDS011;11648;49.306;6.934;2024-03-23T12:27:01;3.20;;;0.50;;
22963;SDS011;11648;49.306;6.934;2024-03-23T12:29:28;2.63;;;0.70;;
22963;SDS011;11648;49.306;6.934;2024-03-23T12:31:59;1.87;;;0.70;;
22963;SDS011;11648;49.306;6.934;2024-03-23T12:34:25;2.20;;;0.70;;
22963;SDS011;11648;49.306;6.934;2024-03-23T12:36:51;3.10;;;0.50;;
22963;SDS011;11648;49.306;6.934;2024-03-23T12:39:17;2.93;;;0.43;;
22963;SDS011;11648;49.306;6.934;2024-03-23T12:41:44;2.53;;;0.50;;
22963;SDS011;11648;49.306;6.934;2024-03-23T12:44:09;2.47;;;0.40;;
22963;SDS011;11648;49.306;6.934;2024-03-23T12:46:37;2.03;;;0.60;;
22963;SDS011;11648;49.306;6.934;2024-03-23T12:49:03;2.70;;;0.77;;
22963;SDS011;11648;49.306;6.934;2024-03-23T12:51:30;2.67;;;0.70;;
22963;SDS011;11648;49.306;6.934;2024-03-23T12:53:57;3.73;;;0.77;;
22963;SDS011;11648;49.306;6.934;2024-03-23T12:56:23;4.83;;;0.70;;
22963;SDS011;11648;49.306;6.934;2024-03-23T12:58:48;2.50;;;1.00;;
22963;SDS011;11648;49.306;6.934;2024-03-23T13:01:17;1.73;;;0.70;;
22963;SDS011;11648;49.306;6.934;2024-03-23T13:03:43;3.37;;;0.60;;
22963;SDS011;11648;49.306;6.934;2024-03-23T13:06:11;2.90;;;0.63;;
22963;SDS011;11648;49.306;6.934;2024-03-23T13:08:37;2.30;;;0.50;;
22963;SDS011;11648;49.306;6.934;2024-03-23T13:11:03;2.00;;;0.50;;
22963;SDS011;11648;49.306;6.934;2024-03-23T13:13:29;2.23;;;0.37;;
22963;SDS011;11648;49.306;6.934;2024-03-23T13:15:56;2.23;;;0.50;;
22963;SDS011;11648;49.306;6.934;2024-03-23T13:18:22;1.83;;;0.47;;
22963;SDS011;11648;49.306;6.934;2024-03-23T13:20:48;1.60;;;0.50;;
22963;SDS011;11648;49.306;6.934;2024-03-23T13:23:14;1.57;;;0.43;;
22963;SDS011;11648;49.306;6.934;2024-03-23T13:25:39;1.70;;;0.70;;
22963;SDS011;11648;49.306;6.934;2024-03-23T13:28:06;1.97;;;0.60;;
22963;SDS011;11648;49.306;6.934;2024-03-23T13:30:32;2.20;;;0.53;;
22963;SDS011;11648;49.306;6.934;2024-03-23T13:32:58;2.97;;;0.70;;
22963;SDS011;11648;49.306;6.934;2024-03-23T13:35:23;2.03;;;0.60;;
22963;SDS011;11648;49.306;6.934;2024-03-23T13:37:49;1.63;;;0.60;;
22963;SDS011;11648;49.306;6.934;2024-03-23T13:40:15;2.40;;;0.50;;
22963;SDS011;11648;49.306;6.934;2024-03-23T13:42:41;3.70;;;0.67;;
22963;SDS011;11648;49.306;6.934;2024-03-23T13:45:07;3.07;;;0.70;;
22963;SDS011;11648;49.306;6.934;2024-03-23T13:47:33;3.93;;;0.63;;
22963;SDS011;11648;49.306;6.934;2024-03-23T13:49:59;4.17;;;0.80;;
22963;SDS011;11648;49.306;6.934;2024-03-23T13:52:25;3.80;;;0.73;;
22963;SDS011;11648;49.306;6.934;2024-03-23T13:54:52;4.47;;;0.80;;
22963;SDS011;11648;49.306;6.934;2024-03-23T13:57:17;3.27;;;0.80;;
22963;SDS011;11648;49.306;6.934;2024-03-23T13:59:47;5.50;;;1.07;;
22963;SDS011;11648;49.306;6.934;2024-03-23T14:02:14;4.27;;;1.23;;
22963;SDS011;11648;49.306;6.934;2024-03-23T14:04:40;5.60;;;1.03;;
22963;SDS011;11648;49.306;6.934;2024-03-23T14:07:06;2.87;;;0.50;;
22963;SDS011;11648;49.306;6.934;2024-03-23T14:09:33;1.60;;;0.60;;
22963;SDS011;11648;49.306;6.934;2024-03-23T14:11:59;1.70;;;0.70;;
22963;SDS011;11648;49.306;6.934;2024-03-23T14:14:25;1.97;;;0.70;;
22963;SDS011;11648;49.306;6.934;2024-03-23T14:16:51;2.30;;;0.70;;
22963;SDS011;11648;49.306;6.934;2024-03-23T14:19:18;1.47;;;0.70;;
22963;SDS011;11648;49.306;6.934;2024-03-23T14:21:44;1.73;;;0.60;;
22963;SDS011;11648;49.306;6.934;2024-03-23T14:24:10;1.40;;;0.60;;
22963;SDS011;11648;49.306;6.934;2024-03-23T14:26:36;1.33;;;0.30;;
22963;SDS011;11648;49.306;6.934;2024-03-23T14:29:02;1.10;;;0.50;;
22963;SDS011;11648;49.306;6.934;2024-03-23T14:31:29;1.13;;;0.40;;
22963;SDS011;11648;49.306;6.934;2024-03-23T14:33:55;0.87;;;0.40;;
22963;SDS011;11648;49.306;6.934;2024-03-23T14:36:21;1.13;;;0.50;;
22963;SDS011;11648;49.306;6.934;2024-03-23T14:38:47;1.50;;;0.50;;
22963;SDS011;11648;49.306;6.934;2024-03-23T14:41:14;1.90;;;0.40;;
22963;SDS011;11648;49.306;6.934;2024-03-23T14:43:40;2.00;;;0.50;;
22963;SDS011;11648;49.306;6.934;2024-03-23T14:48:48;1.83;;;0.47;;
22963;SDS011;11648;49.306;6.934;2024-03-23T14:51:14;2.30;;;0.63;;
22963;SDS011;11648;49.306;6.934;2024-03-23T14:53:40;2.87;;;0.77;;
22963;SDS011;11648;49.306;6.934;2024-03-23T14:56:10;1.47;;;0.60;;
22963;SDS011;11648;49.306;6.934;2024-03-23T14:58:38;1.77;;;0.50;;
22963;SDS011;11648;49.306;6.934;2024-03-23T15:01:06;2.53;;;0.57;;
22963;SDS011;11648;49.306;6.934;2024-03-23T15:03:39;2.83;;;0.77;;
22963;SDS011;11648;49.306;6.934;2024-03-23T15:06:06;1.73;;;0.60;;
22963;SDS011;11648;49.306;6.934;2024-03-23T15:08:35;3.23;;;0.70;;
22963;SDS011;11648;49.306;6.934;2024-03-23T15:11:02;2.83;;;0.53;;
22963;SDS011;11648;49.306;6.934;2024-03-23T15:13:34;3.30;;;0.97;;
22963;SDS011;11648;49.306;6.934;2024-03-23T15:16:01;1.27;;;0.60;;
22963;SDS011;11648;49.306;6.934;2024-03-23T15:18:34;1.70;;;0.60;;
22963;SDS011;11648;49.306;6.934;2024-03-23T15:21:03;2.20;;;0.70;;
22963;SDS011;11648;49.306;6.934;2024-03-23T15:23:33;3.73;;;0.60;;
22963;SDS011;11648;49.306;6.934;2024-03-23T15:25:59;1.60;;;0.53;;
22963;SDS011;11648;49.306;6.934;2024-03-23T15:28:26;2.30;;;0.60;;
22963;SDS011;11648;49.306;6.934;2024-03-23T15:31:03;2.80;;;0.60;;
22963;SDS011;11648;49.306;6.934;2024-03-23T15:33:33;4.00;;;0.70;;
22963;SDS011;11648;49.306;6.934;2024-03-23T15:36:00;2.07;;;0.50;;
22963;SDS011;11648;49.306;6.934;2024-03-23T15:38:29;1.50;;;0.50;;
22963;SDS011;11648;49.306;6.934;2024-03-23T15:40:56;4.83;;;0.70;;
22963;SDS011;11648;49.306;6.934;2024-03-23T15:43:22;3.33;;;0.63;;
22963;SDS011;11648;49.306;6.934;2024-03-23T15:45:58;4.50;;;0.90;;
22963;SDS011;11648;49.306;6.934;2024-03-23T15:48:25;2.17;;;0.80;;
22963;SDS011;11648;49.306;6.934;2024-03-23T15:50:58;2.70;;;0.80;;
22963;SDS011;11648;49.306;6.934;2024-03-23T15:53:25;4.60;;;0.70;;